sensor_id;sensor_type;location;lat;lon;timestamp;temperature;humidity
16635;DHT22;8431;52.458;9.998;2022-11-03T00:01:05;6.60;99.90
16635;DHT22;8431;52.458;9.998;2022-11-03T00:03:32;6.60;99.90
16635;DHT22;8431;52.458;9.998;2022-11-03T00:06:01;6.60;99.90
16635;DHT22;8431;52.458;9.998;2022-11-03T00:08:36;6.60;99.90
16635;DHT22;8431;52.458;9.998;2022-11-03T00:11:05;6.70;99.90
16635;DHT22;8431;52.458;9.998;2022-11-03T00:13:33;6.70;99.90
16635;DHT22;8431;52.458;9.998;2022-11-03T00:16:00;6.80;99.90
16635;DHT22;8431;52.458;9.998;2022-11-03T00:18:27;6.90;99.90
16635;DHT22;8431;52.458;9.998;2022-11-03T00:20:55;7.00;99.90
16635;DHT22;8431;52.458;9.998;2022-11-03T00:23:28;7.20;99.90
16635;DHT22;8431;52.458;9.998;2022-11-03T00:26:05;7.20;99.90
16635;DHT22;8431;52.458;9.998;2022-11-03T00:28:33;7.20;99.90
16635;DHT22;8431;52.458;9.998;2022-11-03T00:31:01;7.30;99.90
16635;DHT22;8431;52.458;9.998;2022-11-03T00:33:32;7.40;99.90
16635;DHT22;8431;52.458;9.998;2022-11-03T00:35:59;7.50;99.90
16635;DHT22;8431;52.458;9.998;2022-11-03T00:38:28;7.50;99.90
16635;DHT22;8431;52.458;9.998;2022-11-03T00:40:57;7.50;99.90
16635;DHT22;8431;52.458;9.998;2022-11-03T00:43:26;7.50;99.90
16635;DHT22;8431;52.458;9.998;2022-11-03T00:45:53;7.50;99.90
16635;DHT22;8431;52.458;9.998;2022-11-03T00:48:21;7.40;99.90
16635;DHT22;8431;52.458;9.998;2022-11-03T00:51:06;7.40;99.90
16635;DHT22;8431;52.458;9.998;2022-11-03T00:53:36;7.40;99.90
16635;DHT22;8431;52.458;9.998;2022-11-03T00:56:04;7.40;99.90
16635;DHT22;8431;52.458;9.998;2022-11-03T00:58:32;7.30;99.90
16635;DHT22;8431;52.458;9.998;2022-11-03T01:01:01;7.30;99.90
16635;DHT22;8431;52.458;9.998;2022-11-03T01:03:33;7.30;99.90
16635;DHT22;8431;52.458;9.998;2022-11-03T01:06:00;7.30;99.90
16635;DHT22;8431;52.458;9.998;2022-11-03T01:08:46;7.30;99.90
16635;DHT22;8431;52.458;9.998;2022-11-03T01:11:14;7.30;99.90
16635;DHT22;8431;52.458;9.998;2022-11-03T01:14:00;7.30;99.90
16635;DHT22;8431;52.458;9.998;2022-11-03T01:16:28;7.30;99.90
16635;DHT22;8431;52.458;9.998;2022-11-03T01:18:55;7.30;99.90
16635;DHT22;8431;52.458;9.998;2022-11-03T01:21:22;7.30;99.90
16635;DHT22;8431;52.458;9.998;2022-11-03T01:23:51;7.30;99.90
16635;DHT22;8431;52.458;9.998;2022-11-03T01:26:18;7.30;99.90
16635;DHT22;8431;52.458;9.998;2022-11-03T01:28:46;7.30;99.90
16635;DHT22;8431;52.458;9.998;2022-11-03T01:31:15;7.40;99.90
16635;DHT22;8431;52.458;9.998;2022-11-03T01:33:43;7.50;99.90
16635;DHT22;8431;52.458;9.998;2022-11-03T01:36:12;7.50;99.90
16635;DHT22;8431;52.458;9.998;2022-11-03T01:38:40;7.60;99.90
16635;DHT22;8431;52.458;9.998;2022-11-03T01:41:10;7.60;99.90
16635;DHT22;8431;52.458;9.998;2022-11-03T01:43:39;7.60;99.90
16635;DHT22;8431;52.458;9.998;2022-11-03T01:46:14;7.60;99.90
16635;DHT22;8431;52.458;9.998;2022-11-03T01:48:45;7.60;99.90
16635;DHT22;8431;52.458;9.998;2022-11-03T01:51:17;7.70;99.90
16635;DHT22;8431;52.458;9.998;2022-11-03T01:53:47;7.70;99.90
16635;DHT22;8431;52.458;9.998;2022-11-03T01:56:48;7.70;99.90
16635;DHT22;8431;52.458;9.998;2022-11-03T01:59:17;7.70;99.90
16635;DHT22;8431;52.458;9.998;2022-11-03T02:01:47;7.80;99.90
16635;DHT22;8431;52.458;9.998;2022-11-03T02:04:19;7.80;99.90
16635;DHT22;8431;52.458;9.998;2022-11-03T02:06:48;7.80;99.90
16635;DHT22;8431;52.458;9.998;2022-11-03T02:09:18;7.80;99.90
16635;DHT22;8431;52.458;9.998;2022-11-03T02:11:47;7.80;99.90
16635;DHT22;8431;52.458;9.998;2022-11-03T02:14:28;7.80;99.90
16635;DHT22;8431;52.458;9.998;2022-11-03T02:16:59;7.90;99.90
16635;DHT22;8431;52.458;9.998;2022-11-03T02:19:31;7.90;99.90
16635;DHT22;8431;52.458;9.998;2022-11-03T02:22:13;7.90;99.90
16635;DHT22;8431;52.458;9.998;2022-11-03T02:24:49;7.90;99.90
16635;DHT22;8431;52.458;9.998;2022-11-03T02:27:18;8.00;99.90
16635;DHT22;8431;52.458;9.998;2022-11-03T02:29:46;8.00;99.90
16635;DHT22;8431;52.458;9.998;2022-11-03T02:32:19;8.00;99.90
16635;DHT22;8431;52.458;9.998;2022-11-03T02:34:49;8.00;99.90
16635;DHT22;8431;52.458;9.998;2022-11-03T02:37:21;8.10;99.90
16635;DHT22;8431;52.458;9.998;2022-11-03T02:39:53;8.10;99.90
16635;DHT22;8431;52.458;9.998;2022-11-03T02:42:24;8.10;99.90
16635;DHT22;8431;52.458;9.998;2022-11-03T02:44:52;8.10;99.90
16635;DHT22;8431;52.458;9.998;2022-11-03T02:47:21;8.20;99.90
16635;DHT22;8431;52.458;9.998;2022-11-03T02:49:52;8.20;99.90
16635;DHT22;8431;52.458;9.998;2022-11-03T02:52:37;8.20;99.90
16635;DHT22;8431;52.458;9.998;2022-11-03T02:55:10;8.30;99.90
16635;DHT22;8431;52.458;9.998;2022-11-03T02:57:43;8.30;99.90
16635;DHT22;8431;52.458;9.998;2022-11-03T03:00:12;8.20;99.90
16635;DHT22;8431;52.458;9.998;2022-11-03T03:02:49;8.20;99.90
16635;DHT22;8431;52.458;9.998;2022-11-03T03:05:21;8.20;99.90
16635;DHT22;8431;52.458;9.998;2022-11-03T03:07:51;8.10;99.90
16635;DHT22;8431;52.458;9.998;2022-11-03T03:10:24;8.10;99.90
16635;DHT22;8431;52.458;9.998;2022-11-03T03:12:56;8.00;99.90
16635;DHT22;8431;52.458;9.998;2022-11-03T03:15:32;8.00;99.90
16635;DHT22;8431;52.458;9.998;2022-11-03T03:18:11;8.00;99.90
16635;DHT22;8431;52.458;9.998;2022-11-03T03:20:48;7.90;99.90
16635;DHT22;8431;52.458;9.998;2022-11-03T03:23:19;7.90;99.90
16635;DHT22;8431;52.458;9.998;2022-11-03T03:25:49;7.90;99.90
16635;DHT22;8431;52.458;9.998;2022-11-03T03:28:22;7.80;99.90
16635;DHT22;8431;52.458;9.998;2022-11-03T03:30:52;7.80;99.90
16635;DHT22;8431;52.458;9.998;2022-11-03T03:33:20;7.70;99.90
16635;DHT22;8431;52.458;9.998;2022-11-03T03:35:49;7.60;99.90
16635;DHT22;8431;52.458;9.998;2022-11-03T03:38:20;7.50;99.90
16635;DHT22;8431;52.458;9.998;2022-11-03T03:40:51;7.50;99.90
16635;DHT22;8431;52.458;9.998;2022-11-03T03:43:22;7.40;99.90
16635;DHT22;8431;52.458;9.998;2022-11-03T03:45:53;7.40;99.90
16635;DHT22;8431;52.458;9.998;2022-11-03T03:48:21;7.40;99.90
16635;DHT22;8431;52.458;9.998;2022-11-03T03:50:48;7.40;99.90
16635;DHT22;8431;52.458;9.998;2022-11-03T03:53:18;7.30;99.90
16635;DHT22;8431;52.458;9.998;2022-11-03T03:55:47;7.20;99.90
16635;DHT22;8431;52.458;9.998;2022-11-03T03:58:16;7.30;99.90
16635;DHT22;8431;52.458;9.998;2022-11-03T04:00:44;7.30;99.90
16635;DHT22;8431;52.458;9.998;2022-11-03T04:03:14;7.40;99.90
16635;DHT22;8431;52.458;9.998;2022-11-03T04:05:42;7.40;99.90
16635;DHT22;8431;52.458;9.998;2022-11-03T04:08:10;7.40;99.90
16635;DHT22;8431;52.458;9.998;2022-11-03T04:10:37;7.50;99.90
16635;DHT22;8431;52.458;9.998;2022-11-03T04:13:04;7.60;99.90
16635;DHT22;8431;52.458;9.998;2022-11-03T04:15:50;7.70;99.90
16635;DHT22;8431;52.458;9.998;2022-11-03T04:18:35;7.80;99.90
16635;DHT22;8431;52.458;9.998;2022-11-03T04:21:20;7.80;99.90
16635;DHT22;8431;52.458;9.998;2022-11-03T04:24:04;7.80;99.90
16635;DHT22;8431;52.458;9.998;2022-11-03T04:26:31;7.80;99.90
16635;DHT22;8431;52.458;9.998;2022-11-03T04:28:59;7.80;99.90
16635;DHT22;8431;52.458;9.998;2022-11-03T04:31:34;7.70;99.90
16635;DHT22;8431;52.458;9.998;2022-11-03T04:34:03;7.70;99.90
16635;DHT22;8431;52.458;9.998;2022-11-03T04:36:30;7.70;99.90
16635;DHT22;8431;52.458;9.998;2022-11-03T04:38:57;7.70;99.90
16635;DHT22;8431;52.458;9.998;2022-11-03T04:41:28;7.80;99.90
16635;DHT22;8431;52.458;9.998;2022-11-03T04:43:57;7.80;99.90
16635;DHT22;8431;52.458;9.998;2022-11-03T04:46:26;7.80;99.90
16635;DHT22;8431;52.458;9.998;2022-11-03T04:48:58;7.80;99.90
16635;DHT22;8431;52.458;9.998;2022-11-03T04:51:27;7.70;99.90
16635;DHT22;8431;52.458;9.998;2022-11-03T04:53:59;7.70;99.90
16635;DHT22;8431;52.458;9.998;2022-11-03T04:56:27;7.60;99.90
16635;DHT22;8431;52.458;9.998;2022-11-03T04:58:55;7.60;99.90
16635;DHT22;8431;52.458;9.998;2022-11-03T05:01:24;7.60;99.90
16635;DHT22;8431;52.458;9.998;2022-11-03T05:03:52;7.60;99.90
16635;DHT22;8431;52.458;9.998;2022-11-03T05:06:22;7.50;99.90
16635;DHT22;8431;52.458;9.998;2022-11-03T05:08:54;7.50;99.90
16635;DHT22;8431;52.458;9.998;2022-11-03T05:11:29;7.50;99.90
16635;DHT22;8431;52.458;9.998;2022-11-03T05:13:58;7.60;99.90
16635;DHT22;8431;52.458;9.998;2022-11-03T05:16:27;7.60;99.90
16635;DHT22;8431;52.458;9.998;2022-11-03T05:18:55;7.60;99.90
16635;DHT22;8431;52.458;9.998;2022-11-03T05:21:26;7.70;99.90
16635;DHT22;8431;52.458;9.998;2022-11-03T05:23:58;7.80;99.90
16635;DHT22;8431;52.458;9.998;2022-11-03T05:26:29;7.90;99.90
16635;DHT22;8431;52.458;9.998;2022-11-03T05:28:59;8.00;99.90
16635;DHT22;8431;52.458;9.998;2022-11-03T05:31:28;8.00;99.90
16635;DHT22;8431;52.458;9.998;2022-11-03T05:33:57;8.10;99.90
16635;DHT22;8431;52.458;9.998;2022-11-03T05:36:28;8.10;99.90
16635;DHT22;8431;52.458;9.998;2022-11-03T05:38:58;8.10;99.90
16635;DHT22;8431;52.458;9.998;2022-11-03T05:41:28;8.20;99.90
16635;DHT22;8431;52.458;9.998;2022-11-03T05:43:58;8.20;99.90
16635;DHT22;8431;52.458;9.998;2022-11-03T05:46:28;8.30;99.90
16635;DHT22;8431;52.458;9.998;2022-11-03T05:48:57;8.30;99.90
16635;DHT22;8431;52.458;9.998;2022-11-03T05:51:30;8.30;99.90
16635;DHT22;8431;52.458;9.998;2022-11-03T05:54:00;8.40;99.90
16635;DHT22;8431;52.458;9.998;2022-11-03T05:56:29;8.40;99.90
16635;DHT22;8431;52.458;9.998;2022-11-03T05:58:58;8.40;99.90
16635;DHT22;8431;52.458;9.998;2022-11-03T06:01:29;8.40;99.90
16635;DHT22;8431;52.458;9.998;2022-11-03T06:03:58;8.50;99.90
16635;DHT22;8431;52.458;9.998;2022-11-03T06:06:31;8.50;99.90
16635;DHT22;8431;52.458;9.998;2022-11-03T06:09:02;8.50;99.90
16635;DHT22;8431;52.458;9.998;2022-11-03T06:11:35;8.60;99.90
16635;DHT22;8431;52.458;9.998;2022-11-03T06:14:12;8.60;99.90
16635;DHT22;8431;52.458;9.998;2022-11-03T06:16:41;8.50;99.90
16635;DHT22;8431;52.458;9.998;2022-11-03T06:19:22;8.60;99.90
16635;DHT22;8431;52.458;9.998;2022-11-03T06:21:51;8.60;99.90
16635;DHT22;8431;52.458;9.998;2022-11-03T06:24:21;8.60;99.90
16635;DHT22;8431;52.458;9.998;2022-11-03T06:26:50;8.50;99.90
16635;DHT22;8431;52.458;9.998;2022-11-03T06:29:19;8.50;99.90
16635;DHT22;8431;52.458;9.998;2022-11-03T06:31:48;8.50;99.90
16635;DHT22;8431;52.458;9.998;2022-11-03T06:37:21;8.50;99.90
16635;DHT22;8431;52.458;9.998;2022-11-03T06:39:50;8.50;99.90
16635;DHT22;8431;52.458;9.998;2022-11-03T06:42:20;8.50;99.90
16635;DHT22;8431;52.458;9.998;2022-11-03T06:44:48;8.60;99.90
16635;DHT22;8431;52.458;9.998;2022-11-03T06:47:21;8.50;99.90
16635;DHT22;8431;52.458;9.998;2022-11-03T06:49:49;8.60;99.90
16635;DHT22;8431;52.458;9.998;2022-11-03T06:52:25;8.70;99.90
16635;DHT22;8431;52.458;9.998;2022-11-03T06:55:10;8.70;99.90
16635;DHT22;8431;52.458;9.998;2022-11-03T06:57:42;8.70;99.90
16635;DHT22;8431;52.458;9.998;2022-11-03T07:00:15;8.80;99.90
16635;DHT22;8431;52.458;9.998;2022-11-03T07:02:54;8.80;99.90
16635;DHT22;8431;52.458;9.998;2022-11-03T07:05:22;8.80;99.90
16635;DHT22;8431;52.458;9.998;2022-11-03T07:07:53;8.80;99.90
16635;DHT22;8431;52.458;9.998;2022-11-03T07:10:22;8.80;99.90
16635;DHT22;8431;52.458;9.998;2022-11-03T07:12:50;8.80;99.90
16635;DHT22;8431;52.458;9.998;2022-11-03T07:15:23;8.90;99.90
16635;DHT22;8431;52.458;9.998;2022-11-03T07:17:50;8.90;99.90
16635;DHT22;8431;52.458;9.998;2022-11-03T07:20:18;9.00;99.90
16635;DHT22;8431;52.458;9.998;2022-11-03T07:22:45;9.00;99.90
16635;DHT22;8431;52.458;9.998;2022-11-03T07:25:17;9.10;99.90
16635;DHT22;8431;52.458;9.998;2022-11-03T07:27:46;9.10;99.90
16635;DHT22;8431;52.458;9.998;2022-11-03T07:30:20;9.10;99.90
16635;DHT22;8431;52.458;9.998;2022-11-03T07:32:49;9.20;99.90
16635;DHT22;8431;52.458;9.998;2022-11-03T07:35:32;9.20;99.90
16635;DHT22;8431;52.458;9.998;2022-11-03T07:38:02;9.30;99.90
16635;DHT22;8431;52.458;9.998;2022-11-03T07:40:36;9.30;99.90
16635;DHT22;8431;52.458;9.998;2022-11-03T07:43:12;9.40;99.90
16635;DHT22;8431;52.458;9.998;2022-11-03T07:45:42;9.50;99.90
16635;DHT22;8431;52.458;9.998;2022-11-03T07:48:21;9.50;99.90
16635;DHT22;8431;52.458;9.998;2022-11-03T07:50:49;9.60;99.90
16635;DHT22;8431;52.458;9.998;2022-11-03T07:53:20;9.60;99.90
16635;DHT22;8431;52.458;9.998;2022-11-03T07:55:49;9.70;99.90
16635;DHT22;8431;52.458;9.998;2022-11-03T07:58:24;9.70;99.90
16635;DHT22;8431;52.458;9.998;2022-11-03T08:00:54;9.80;99.90
16635;DHT22;8431;52.458;9.998;2022-11-03T08:03:39;9.80;99.90
16635;DHT22;8431;52.458;9.998;2022-11-03T08:06:08;9.90;99.90
16635;DHT22;8431;52.458;9.998;2022-11-03T08:08:35;10.00;99.90
16635;DHT22;8431;52.458;9.998;2022-11-03T08:11:03;10.00;99.90
16635;DHT22;8431;52.458;9.998;2022-11-03T08:13:31;10.10;99.90
16635;DHT22;8431;52.458;9.998;2022-11-03T08:15:58;10.10;99.90
16635;DHT22;8431;52.458;9.998;2022-11-03T08:18:25;10.20;99.90
16635;DHT22;8431;52.458;9.998;2022-11-03T08:20:52;10.20;99.90
16635;DHT22;8431;52.458;9.998;2022-11-03T08:23:19;10.30;99.90
16635;DHT22;8431;52.458;9.998;2022-11-03T08:25:46;10.30;99.90
16635;DHT22;8431;52.458;9.998;2022-11-03T08:28:15;10.40;99.90
16635;DHT22;8431;52.458;9.998;2022-11-03T08:30:42;10.40;99.90
16635;DHT22;8431;52.458;9.998;2022-11-03T08:33:09;10.50;99.90
16635;DHT22;8431;52.458;9.998;2022-11-03T08:35:36;10.50;99.90
16635;DHT22;8431;52.458;9.998;2022-11-03T08:38:03;10.50;99.90
16635;DHT22;8431;52.458;9.998;2022-11-03T08:40:30;10.60;99.90
16635;DHT22;8431;52.458;9.998;2022-11-03T08:42:57;10.70;99.90
16635;DHT22;8431;52.458;9.998;2022-11-03T08:45:26;10.60;99.90
16635;DHT22;8431;52.458;9.998;2022-11-03T08:47:56;10.70;99.90
16635;DHT22;8431;52.458;9.998;2022-11-03T08:50:24;10.70;99.90
16635;DHT22;8431;52.458;9.998;2022-11-03T08:52:51;10.70;99.90
16635;DHT22;8431;52.458;9.998;2022-11-03T08:55:17;10.70;99.90
16635;DHT22;8431;52.458;9.998;2022-11-03T08:57:44;10.70;99.90
16635;DHT22;8431;52.458;9.998;2022-11-03T09:00:13;10.70;99.90
16635;DHT22;8431;52.458;9.998;2022-11-03T09:02:42;10.70;99.90
16635;DHT22;8431;52.458;9.998;2022-11-03T09:05:10;10.70;99.90
16635;DHT22;8431;52.458;9.998;2022-11-03T09:07:38;10.60;99.90
16635;DHT22;8431;52.458;9.998;2022-11-03T09:10:07;10.70;99.90
16635;DHT22;8431;52.458;9.998;2022-11-03T09:12:34;10.70;99.90
16635;DHT22;8431;52.458;9.998;2022-11-03T09:15:02;10.60;99.90
16635;DHT22;8431;52.458;9.998;2022-11-03T09:17:29;10.70;99.90
16635;DHT22;8431;52.458;9.998;2022-11-03T09:19:57;10.70;99.90
16635;DHT22;8431;52.458;9.998;2022-11-03T09:22:24;10.80;99.90
16635;DHT22;8431;52.458;9.998;2022-11-03T09:24:51;10.80;99.90
16635;DHT22;8431;52.458;9.998;2022-11-03T09:27:18;10.90;99.90
16635;DHT22;8431;52.458;9.998;2022-11-03T09:29:45;11.00;99.90
16635;DHT22;8431;52.458;9.998;2022-11-03T09:32:12;11.00;99.90
16635;DHT22;8431;52.458;9.998;2022-11-03T09:34:40;11.20;99.90
16635;DHT22;8431;52.458;9.998;2022-11-03T09:37:08;11.20;99.90
16635;DHT22;8431;52.458;9.998;2022-11-03T09:39:36;11.30;99.90
16635;DHT22;8431;52.458;9.998;2022-11-03T09:42:03;11.30;99.90
16635;DHT22;8431;52.458;9.998;2022-11-03T09:44:32;11.30;99.90
16635;DHT22;8431;52.458;9.998;2022-11-03T09:47:00;11.50;99.90
16635;DHT22;8431;52.458;9.998;2022-11-03T09:49:30;11.50;99.90
16635;DHT22;8431;52.458;9.998;2022-11-03T09:51:58;11.50;99.90
16635;DHT22;8431;52.458;9.998;2022-11-03T09:54:27;11.60;99.90
16635;DHT22;8431;52.458;9.998;2022-11-03T09:56:56;11.70;99.90
16635;DHT22;8431;52.458;9.998;2022-11-03T09:59:24;11.90;99.90
16635;DHT22;8431;52.458;9.998;2022-11-03T10:01:52;12.10;99.90
16635;DHT22;8431;52.458;9.998;2022-11-03T10:04:22;12.30;99.90
16635;DHT22;8431;52.458;9.998;2022-11-03T10:06:50;12.50;99.90
16635;DHT22;8431;52.458;9.998;2022-11-03T10:09:18;12.70;99.90
16635;DHT22;8431;52.458;9.998;2022-11-03T10:11:50;12.90;99.90
16635;DHT22;8431;52.458;9.998;2022-11-03T10:14:19;13.00;99.90
16635;DHT22;8431;52.458;9.998;2022-11-03T10:16:56;13.20;99.90
16635;DHT22;8431;52.458;9.998;2022-11-03T10:19:24;13.30;99.90
16635;DHT22;8431;52.458;9.998;2022-11-03T10:21:52;13.30;99.90
16635;DHT22;8431;52.458;9.998;2022-11-03T10:24:19;13.30;99.90
16635;DHT22;8431;52.458;9.998;2022-11-03T10:26:49;13.20;99.90
16635;DHT22;8431;52.458;9.998;2022-11-03T10:29:19;13.10;99.90
16635;DHT22;8431;52.458;9.998;2022-11-03T10:31:46;13.10;99.90
16635;DHT22;8431;52.458;9.998;2022-11-03T10:34:31;12.90;99.90
16635;DHT22;8431;52.458;9.998;2022-11-03T10:37:15;12.80;99.90
16635;DHT22;8431;52.458;9.998;2022-11-03T10:39:46;12.90;99.90
16635;DHT22;8431;52.458;9.998;2022-11-03T10:42:19;13.00;99.90
16635;DHT22;8431;52.458;9.998;2022-11-03T10:44:47;13.10;99.90
16635;DHT22;8431;52.458;9.998;2022-11-03T10:47:24;13.20;99.90
16635;DHT22;8431;52.458;9.998;2022-11-03T10:49:52;13.30;99.90
16635;DHT22;8431;52.458;9.998;2022-11-03T10:52:22;13.50;99.90
16635;DHT22;8431;52.458;9.998;2022-11-03T10:54:51;13.60;99.90
16635;DHT22;8431;52.458;9.998;2022-11-03T10:57:21;13.70;99.90
16635;DHT22;8431;52.458;9.998;2022-11-03T10:59:49;13.70;99.90
16635;DHT22;8431;52.458;9.998;2022-11-03T11:02:19;13.70;99.90
16635;DHT22;8431;52.458;9.998;2022-11-03T11:04:47;13.70;99.90
16635;DHT22;8431;52.458;9.998;2022-11-03T11:07:20;13.70;99.90
16635;DHT22;8431;52.458;9.998;2022-11-03T11:09:49;13.70;99.90
16635;DHT22;8431;52.458;9.998;2022-11-03T11:12:20;13.70;99.90
16635;DHT22;8431;52.458;9.998;2022-11-03T11:14:53;13.80;99.90
16635;DHT22;8431;52.458;9.998;2022-11-03T11:17:42;13.80;99.90
16635;DHT22;8431;52.458;9.998;2022-11-03T11:20:32;13.80;99.90
16635;DHT22;8431;52.458;9.998;2022-11-03T11:26:30;13.90;99.90
16635;DHT22;8431;52.458;9.998;2022-11-03T11:38:51;14.10;99.90
16635;DHT22;8431;52.458;9.998;2022-11-03T11:41:20;14.20;99.90
16635;DHT22;8431;52.458;9.998;2022-11-03T11:43:47;14.20;99.90
16635;DHT22;8431;52.458;9.998;2022-11-03T11:46:31;14.20;99.90
16635;DHT22;8431;52.458;9.998;2022-11-03T11:49:16;14.20;99.90
16635;DHT22;8431;52.458;9.998;2022-11-03T11:51:44;14.20;99.90
16635;DHT22;8431;52.458;9.998;2022-11-03T11:54:16;14.30;99.90
16635;DHT22;8431;52.458;9.998;2022-11-03T11:56:49;14.40;99.90
16635;DHT22;8431;52.458;9.998;2022-11-03T11:59:18;14.50;99.90
16635;DHT22;8431;52.458;9.998;2022-11-03T12:01:49;14.60;99.90
16635;DHT22;8431;52.458;9.998;2022-11-03T12:04:20;14.60;99.90
16635;DHT22;8431;52.458;9.998;2022-11-03T12:06:49;14.50;99.90
16635;DHT22;8431;52.458;9.998;2022-11-03T12:09:19;14.30;99.90
16635;DHT22;8431;52.458;9.998;2022-11-03T12:11:48;14.20;99.90
16635;DHT22;8431;52.458;9.998;2022-11-03T12:14:25;14.20;99.90
16635;DHT22;8431;52.458;9.998;2022-11-03T12:17:30;14.20;99.90
16635;DHT22;8431;52.458;9.998;2022-11-03T12:19:46;14.10;99.90
16635;DHT22;8431;52.458;9.998;2022-11-03T12:22:39;14.20;99.90
16635;DHT22;8431;52.458;9.998;2022-11-03T12:25:32;14.20;99.90
16635;DHT22;8431;52.458;9.998;2022-11-03T12:27:59;14.20;99.90
16635;DHT22;8431;52.458;9.998;2022-11-03T12:30:27;14.10;99.90
16635;DHT22;8431;52.458;9.998;2022-11-03T12:32:54;14.00;99.90
16635;DHT22;8431;52.458;9.998;2022-11-03T12:35:22;14.00;99.90
16635;DHT22;8431;52.458;9.998;2022-11-03T12:37:50;14.00;99.90
16635;DHT22;8431;52.458;9.998;2022-11-03T12:40:17;13.90;99.90
16635;DHT22;8431;52.458;9.998;2022-11-03T12:42:44;13.90;99.90
16635;DHT22;8431;52.458;9.998;2022-11-03T12:45:12;14.00;99.90
16635;DHT22;8431;52.458;9.998;2022-11-03T12:47:39;14.00;99.90
16635;DHT22;8431;52.458;9.998;2022-11-03T12:50:06;14.10;99.90
16635;DHT22;8431;52.458;9.998;2022-11-03T12:52:33;14.10;99.90
16635;DHT22;8431;52.458;9.998;2022-11-03T12:55:02;14.10;99.90
16635;DHT22;8431;52.458;9.998;2022-11-03T12:57:29;14.10;99.90
16635;DHT22;8431;52.458;9.998;2022-11-03T12:59:57;14.10;99.90
16635;DHT22;8431;52.458;9.998;2022-11-03T13:02:24;14.10;99.90
16635;DHT22;8431;52.458;9.998;2022-11-03T13:04:51;14.10;99.90
16635;DHT22;8431;52.458;9.998;2022-11-03T13:07:18;14.10;99.90
16635;DHT22;8431;52.458;9.998;2022-11-03T13:09:45;14.10;99.90
16635;DHT22;8431;52.458;9.998;2022-11-03T13:12:15;14.10;99.90
16635;DHT22;8431;52.458;9.998;2022-11-03T13:14:57;14.10;99.90
16635;DHT22;8431;52.458;9.998;2022-11-03T13:17:24;14.10;99.90
16635;DHT22;8431;52.458;9.998;2022-11-03T13:19:51;14.10;99.90
16635;DHT22;8431;52.458;9.998;2022-11-03T13:22:26;14.00;99.90
16635;DHT22;8431;52.458;9.998;2022-11-03T13:24:53;14.00;99.90
16635;DHT22;8431;52.458;9.998;2022-11-03T13:27:21;14.00;99.90
16635;DHT22;8431;52.458;9.998;2022-11-03T13:29:49;13.90;99.90
16635;DHT22;8431;52.458;9.998;2022-11-03T13:32:38;13.90;99.90
16635;DHT22;8431;52.458;9.998;2022-11-03T13:35:14;13.90;99.90
16635;DHT22;8431;52.458;9.998;2022-11-03T13:37:42;13.90;99.90
16635;DHT22;8431;52.458;9.998;2022-11-03T13:40:10;13.80;99.90
16635;DHT22;8431;52.458;9.998;2022-11-03T13:42:39;13.80;99.90
16635;DHT22;8431;52.458;9.998;2022-11-03T13:45:07;13.80;99.90
16635;DHT22;8431;52.458;9.998;2022-11-03T13:47:34;13.80;99.90
16635;DHT22;8431;52.458;9.998;2022-11-03T13:50:02;13.70;99.90
16635;DHT22;8431;52.458;9.998;2022-11-03T13:52:29;13.70;99.90
16635;DHT22;8431;52.458;9.998;2022-11-03T13:54:56;13.60;99.90
16635;DHT22;8431;52.458;9.998;2022-11-03T13:57:23;13.50;99.90
16635;DHT22;8431;52.458;9.998;2022-11-03T13:59:51;13.50;99.90
16635;DHT22;8431;52.458;9.998;2022-11-03T14:02:18;13.50;99.90
16635;DHT22;8431;52.458;9.998;2022-11-03T14:04:45;13.50;99.90
16635;DHT22;8431;52.458;9.998;2022-11-03T14:07:12;13.40;99.90
16635;DHT22;8431;52.458;9.998;2022-11-03T14:09:40;13.40;99.90
16635;DHT22;8431;52.458;9.998;2022-11-03T14:12:07;13.30;99.90
16635;DHT22;8431;52.458;9.998;2022-11-03T14:14:53;13.30;99.90
16635;DHT22;8431;52.458;9.998;2022-11-03T14:17:20;13.20;99.90
16635;DHT22;8431;52.458;9.998;2022-11-03T14:19:47;13.20;99.90
16635;DHT22;8431;52.458;9.998;2022-11-03T14:22:14;13.10;99.90
16635;DHT22;8431;52.458;9.998;2022-11-03T14:24:41;13.00;99.90
16635;DHT22;8431;52.458;9.998;2022-11-03T14:27:09;13.00;99.90
16635;DHT22;8431;52.458;9.998;2022-11-03T14:29:36;13.00;99.90
16635;DHT22;8431;52.458;9.998;2022-11-03T14:32:09;12.90;99.90
16635;DHT22;8431;52.458;9.998;2022-11-03T14:34:37;12.90;99.90
16635;DHT22;8431;52.458;9.998;2022-11-03T14:37:04;12.80;99.90
16635;DHT22;8431;52.458;9.998;2022-11-03T14:39:33;12.80;99.90
16635;DHT22;8431;52.458;9.998;2022-11-03T14:42:01;12.80;99.90
16635;DHT22;8431;52.458;9.998;2022-11-03T14:44:30;12.80;99.90
16635;DHT22;8431;52.458;9.998;2022-11-03T14:46:58;12.90;99.90
16635;DHT22;8431;52.458;9.998;2022-11-03T14:49:27;12.90;99.90
16635;DHT22;8431;52.458;9.998;2022-11-03T14:51:54;12.90;99.90
16635;DHT22;8431;52.458;9.998;2022-11-03T14:54:22;12.90;99.90
16635;DHT22;8431;52.458;9.998;2022-11-03T14:56:49;12.80;99.90
16635;DHT22;8431;52.458;9.998;2022-11-03T14:59:17;12.90;99.90
16635;DHT22;8431;52.458;9.998;2022-11-03T15:01:45;12.90;99.90
16635;DHT22;8431;52.458;9.998;2022-11-03T15:04:12;12.90;99.90
16635;DHT22;8431;52.458;9.998;2022-11-03T15:06:40;12.90;99.90
16635;DHT22;8431;52.458;9.998;2022-11-03T15:09:08;12.80;99.90
16635;DHT22;8431;52.458;9.998;2022-11-03T15:11:35;12.80;99.90
16635;DHT22;8431;52.458;9.998;2022-11-03T15:14:02;12.70;99.90
16635;DHT22;8431;52.458;9.998;2022-11-03T15:16:30;12.60;99.90
16635;DHT22;8431;52.458;9.998;2022-11-03T15:18:59;12.60;99.90
16635;DHT22;8431;52.458;9.998;2022-11-03T15:21:28;12.50;99.90
16635;DHT22;8431;52.458;9.998;2022-11-03T15:23:56;12.40;99.90
16635;DHT22;8431;52.458;9.998;2022-11-03T15:26:24;12.40;99.90
16635;DHT22;8431;52.458;9.998;2022-11-03T15:28:51;12.30;99.90
16635;DHT22;8431;52.458;9.998;2022-11-03T15:31:18;12.30;99.90
16635;DHT22;8431;52.458;9.998;2022-11-03T15:33:45;12.10;99.90
16635;DHT22;8431;52.458;9.998;2022-11-03T15:36:13;12.10;99.90
16635;DHT22;8431;52.458;9.998;2022-11-03T15:38:40;12.00;99.90
16635;DHT22;8431;52.458;9.998;2022-11-03T15:41:09;11.90;99.90
16635;DHT22;8431;52.458;9.998;2022-11-03T15:43:42;11.80;99.90
16635;DHT22;8431;52.458;9.998;2022-11-03T15:46:21;11.70;99.90
16635;DHT22;8431;52.458;9.998;2022-11-03T15:48:52;11.70;99.90
16635;DHT22;8431;52.458;9.998;2022-11-03T15:51:22;11.70;99.90
16635;DHT22;8431;52.458;9.998;2022-11-03T15:53:49;11.70;99.90
16635;DHT22;8431;52.458;9.998;2022-11-03T15:56:17;11.60;99.90
16635;DHT22;8431;52.458;9.998;2022-11-03T15:58:44;11.70;99.90
16635;DHT22;8431;52.458;9.998;2022-11-03T16:01:11;11.70;99.90
16635;DHT22;8431;52.458;9.998;2022-11-03T16:03:38;11.70;99.90
16635;DHT22;8431;52.458;9.998;2022-11-03T16:06:05;11.80;99.90
16635;DHT22;8431;52.458;9.998;2022-11-03T16:08:32;11.80;99.90
16635;DHT22;8431;52.458;9.998;2022-11-03T16:10:59;11.80;99.90
16635;DHT22;8431;52.458;9.998;2022-11-03T16:13:28;11.80;99.90
16635;DHT22;8431;52.458;9.998;2022-11-03T16:15:55;11.80;99.90
16635;DHT22;8431;52.458;9.998;2022-11-03T16:18:22;11.70;99.90
16635;DHT22;8431;52.458;9.998;2022-11-03T16:20:49;11.70;99.90
16635;DHT22;8431;52.458;9.998;2022-11-03T16:23:16;11.70;99.90
16635;DHT22;8431;52.458;9.998;2022-11-03T16:25:43;11.70;99.90
16635;DHT22;8431;52.458;9.998;2022-11-03T16:28:10;11.60;99.90
16635;DHT22;8431;52.458;9.998;2022-11-03T16:30:39;11.60;99.90